sensor_id;sensor_type;location;lat;lon;timestamp;P1;durP1;ratioP1;P2;durP2;ratioP2
52618;SDS011;38513;53.234;6.568;2023-04-16T00:00:05;103.15;;;42.90;;
52618;SDS011;38513;53.234;6.568;2023-04-16T00:02:32;100.13;;;42.72;;
52618;SDS011;38513;53.234;6.568;2023-04-16T00:04:58;108.30;;;45.40;;
52618;SDS011;38513;53.234;6.568;2023-04-16T00:07:24;102.25;;;42.72;;
52618;SDS011;38513;53.234;6.568;2023-04-16T00:09:50;109.77;;;45.47;;
52618;SDS011;38513;53.234;6.568;2023-04-16T00:12:16;104.97;;;43.80;;
52618;SDS011;38513;53.234;6.568;2023-04-16T00:14:42;112.10;;;46.38;;
52618;SDS011;38513;53.234;6.568;2023-04-16T00:17:09;114.40;;;45.10;;
52618;SDS011;38513;53.234;6.568;2023-04-16T00:19:35;111.85;;;47.50;;
52618;SDS011;38513;53.234;6.568;2023-04-16T00:22:01;120.75;;;48.17;;
52618;SDS011;38513;53.234;6.568;2023-04-16T00:24:27;122.55;;;49.90;;
52618;SDS011;38513;53.234;6.568;2023-04-16T00:26:56;125.55;;;50.88;;
52618;SDS011;38513;53.234;6.568;2023-04-16T00:29:22;129.20;;;51.10;;
52618;SDS011;38513;53.234;6.568;2023-04-16T00:31:49;125.78;;;51.72;;
52618;SDS011;38513;53.234;6.568;2023-04-16T00:34:15;123.45;;;50.92;;
52618;SDS011;38513;53.234;6.568;2023-04-16T00:36:42;139.38;;;53.72;;
52618;SDS011;38513;53.234;6.568;2023-04-16T00:39:08;125.32;;;51.17;;
52618;SDS011;38513;53.234;6.568;2023-04-16T00:41:37;133.85;;;54.53;;
52618;SDS011;38513;53.234;6.568;2023-04-16T00:44:03;156.63;;;55.10;;
52618;SDS011;38513;53.234;6.568;2023-04-16T00:46:29;137.80;;;54.88;;
52618;SDS011;38513;53.234;6.568;2023-04-16T00:48:59;164.32;;;56.10;;
52618;SDS011;38513;53.234;6.568;2023-04-16T00:51:25;186.53;;;59.53;;
52618;SDS011;38513;53.234;6.568;2023-04-16T00:53:52;158.57;;;57.30;;
52618;SDS011;38513;53.234;6.568;2023-04-16T00:56:18;225.05;;;66.85;;
52618;SDS011;38513;53.234;6.568;2023-04-16T00:58:48;189.70;;;62.97;;
52618;SDS011;38513;53.234;6.568;2023-04-16T01:01:14;177.17;;;58.80;;
52618;SDS011;38513;53.234;6.568;2023-04-16T01:03:44;159.02;;;57.70;;
52618;SDS011;38513;53.234;6.568;2023-04-16T01:06:10;170.40;;;59.88;;
52618;SDS011;38513;53.234;6.568;2023-04-16T01:08:37;175.65;;;61.40;;
52618;SDS011;38513;53.234;6.568;2023-04-16T01:11:04;163.53;;;59.83;;
52618;SDS011;38513;53.234;6.568;2023-04-16T01:13:31;160.40;;;59.42;;
52618;SDS011;38513;53.234;6.568;2023-04-16T01:15:58;178.55;;;60.83;;
52618;SDS011;38513;53.234;6.568;2023-04-16T01:18:24;156.35;;;55.47;;
52618;SDS011;38513;53.234;6.568;2023-04-16T01:20:51;176.90;;;59.42;;
52618;SDS011;38513;53.234;6.568;2023-04-16T01:23:17;201.50;;;61.03;;
52618;SDS011;38513;53.234;6.568;2023-04-16T01:25:44;168.45;;;58.45;;
52618;SDS011;38513;53.234;6.568;2023-04-16T01:28:10;184.77;;;60.90;;
52618;SDS011;38513;53.234;6.568;2023-04-16T01:30:37;193.23;;;59.65;;
52618;SDS011;38513;53.234;6.568;2023-04-16T01:33:03;193.52;;;59.13;;
52618;SDS011;38513;53.234;6.568;2023-04-16T01:35:30;206.63;;;60.63;;
52618;SDS011;38513;53.234;6.568;2023-04-16T01:37:59;157.40;;;55.08;;
52618;SDS011;38513;53.234;6.568;2023-04-16T01:40:25;165.75;;;55.40;;
52618;SDS011;38513;53.234;6.568;2023-04-16T01:42:51;184.30;;;57.93;;
52618;SDS011;38513;53.234;6.568;2023-04-16T01:45:18;173.38;;;56.72;;
52618;SDS011;38513;53.234;6.568;2023-04-16T01:47:44;173.25;;;56.75;;
52618;SDS011;38513;53.234;6.568;2023-04-16T01:50:10;164.82;;;55.20;;
52618;SDS011;38513;53.234;6.568;2023-04-16T01:52:36;192.43;;;58.60;;
52618;SDS011;38513;53.234;6.568;2023-04-16T01:55:02;174.00;;;56.00;;
52618;SDS011;38513;53.234;6.568;2023-04-16T01:57:29;155.57;;;54.97;;
52618;SDS011;38513;53.234;6.568;2023-04-16T01:59:55;170.55;;;56.45;;
52618;SDS011;38513;53.234;6.568;2023-04-16T02:02:21;179.80;;;58.78;;
52618;SDS011;38513;53.234;6.568;2023-04-16T02:04:52;181.30;;;59.55;;
52618;SDS011;38513;53.234;6.568;2023-04-16T02:07:18;178.27;;;61.08;;
52618;SDS011;38513;53.234;6.568;2023-04-16T02:09:44;165.10;;;59.80;;
52618;SDS011;38513;53.234;6.568;2023-04-16T02:12:10;158.43;;;59.72;;
52618;SDS011;38513;53.234;6.568;2023-04-16T02:14:36;146.95;;;58.97;;
52618;SDS011;38513;53.234;6.568;2023-04-16T02:17:05;149.32;;;58.47;;
52618;SDS011;38513;53.234;6.568;2023-04-16T02:19:31;149.32;;;57.88;;
52618;SDS011;38513;53.234;6.568;2023-04-16T02:21:57;170.73;;;60.70;;
52618;SDS011;38513;53.234;6.568;2023-04-16T02:24:25;160.10;;;58.38;;
52618;SDS011;38513;53.234;6.568;2023-04-16T02:26:52;155.48;;;56.22;;
52618;SDS011;38513;53.234;6.568;2023-04-16T02:29:25;165.07;;;56.38;;
52618;SDS011;38513;53.234;6.568;2023-04-16T02:31:51;164.93;;;57.33;;
52618;SDS011;38513;53.234;6.568;2023-04-16T02:34:17;160.45;;;56.78;;
52618;SDS011;38513;53.234;6.568;2023-04-16T02:36:43;150.05;;;55.55;;
52618;SDS011;38513;53.234;6.568;2023-04-16T02:39:09;153.10;;;55.55;;
52618;SDS011;38513;53.234;6.568;2023-04-16T02:41:35;163.95;;;56.10;;
52618;SDS011;38513;53.234;6.568;2023-04-16T02:44:02;179.85;;;58.28;;
52618;SDS011;38513;53.234;6.568;2023-04-16T02:46:28;205.45;;;58.28;;
52618;SDS011;38513;53.234;6.568;2023-04-16T02:48:54;171.90;;;57.13;;
52618;SDS011;38513;53.234;6.568;2023-04-16T02:51:21;167.38;;;53.53;;
52618;SDS011;38513;53.234;6.568;2023-04-16T02:53:47;190.88;;;57.35;;
52618;SDS011;38513;53.234;6.568;2023-04-16T02:56:13;146.70;;;50.83;;
52618;SDS011;38513;53.234;6.568;2023-04-16T02:58:39;164.43;;;55.22;;
52618;SDS011;38513;53.234;6.568;2023-04-16T03:01:05;154.80;;;52.85;;
52618;SDS011;38513;53.234;6.568;2023-04-16T03:03:31;171.88;;;56.45;;
52618;SDS011;38513;53.234;6.568;2023-04-16T03:05:58;163.35;;;53.95;;
52618;SDS011;38513;53.234;6.568;2023-04-16T03:08:24;156.35;;;52.03;;
52618;SDS011;38513;53.234;6.568;2023-04-16T03:10:50;147.65;;;51.22;;
52618;SDS011;38513;53.234;6.568;2023-04-16T03:13:17;149.73;;;50.92;;
52618;SDS011;38513;53.234;6.568;2023-04-16T03:15:47;159.77;;;52.50;;
52618;SDS011;38513;53.234;6.568;2023-04-16T03:18:13;156.27;;;52.65;;
52618;SDS011;38513;53.234;6.568;2023-04-16T03:20:40;156.77;;;50.85;;
52618;SDS011;38513;53.234;6.568;2023-04-16T03:23:06;157.88;;;51.80;;
52618;SDS011;38513;53.234;6.568;2023-04-16T03:25:35;166.40;;;53.05;;
52618;SDS011;38513;53.234;6.568;2023-04-16T03:28:01;168.93;;;51.83;;
52618;SDS011;38513;53.234;6.568;2023-04-16T03:30:27;149.23;;;50.65;;
52618;SDS011;38513;53.234;6.568;2023-04-16T03:32:54;148.25;;;48.70;;
52618;SDS011;38513;53.234;6.568;2023-04-16T03:35:23;134.32;;;47.83;;
52618;SDS011;38513;53.234;6.568;2023-04-16T03:37:49;153.30;;;47.55;;
52618;SDS011;38513;53.234;6.568;2023-04-16T03:40:15;138.77;;;46.50;;
52618;SDS011;38513;53.234;6.568;2023-04-16T03:42:42;128.55;;;45.97;;
52618;SDS011;38513;53.234;6.568;2023-04-16T03:45:08;138.13;;;45.85;;
52618;SDS011;38513;53.234;6.568;2023-04-16T03:47:34;137.23;;;45.92;;
52618;SDS011;38513;53.234;6.568;2023-04-16T03:50:00;135.30;;;46.15;;
52618;SDS011;38513;53.234;6.568;2023-04-16T03:52:27;139.07;;;46.67;;
52618;SDS011;38513;53.234;6.568;2023-04-16T03:54:56;132.38;;;45.10;;
52618;SDS011;38513;53.234;6.568;2023-04-16T03:57:28;128.57;;;44.60;;
52618;SDS011;38513;53.234;6.568;2023-04-16T03:59:54;135.27;;;45.33;;
52618;SDS011;38513;53.234;6.568;2023-04-16T04:02:22;131.38;;;45.20;;
52618;SDS011;38513;53.234;6.568;2023-04-16T04:04:48;140.65;;;43.05;;
52618;SDS011;38513;53.234;6.568;2023-04-16T04:07:15;127.82;;;44.13;;
52618;SDS011;38513;53.234;6.568;2023-04-16T04:09:43;151.98;;;46.58;;
52618;SDS011;38513;53.234;6.568;2023-04-16T04:12:09;136.10;;;46.35;;
52618;SDS011;38513;53.234;6.568;2023-04-16T04:14:36;132.40;;;45.38;;
52618;SDS011;38513;53.234;6.568;2023-04-16T04:17:04;144.38;;;46.10;;
52618;SDS011;38513;53.234;6.568;2023-04-16T04:19:30;152.40;;;47.13;;
52618;SDS011;38513;53.234;6.568;2023-04-16T04:22:03;163.18;;;48.58;;
52618;SDS011;38513;53.234;6.568;2023-04-16T04:24:29;158.87;;;47.07;;
52618;SDS011;38513;53.234;6.568;2023-04-16T04:26:55;158.18;;;47.83;;
52618;SDS011;38513;53.234;6.568;2023-04-16T04:29:22;163.02;;;48.38;;
52618;SDS011;38513;53.234;6.568;2023-04-16T04:31:48;138.50;;;45.13;;
52618;SDS011;38513;53.234;6.568;2023-04-16T04:34:14;160.63;;;48.90;;
52618;SDS011;38513;53.234;6.568;2023-04-16T04:36:41;151.50;;;48.03;;
52618;SDS011;38513;53.234;6.568;2023-04-16T04:39:07;147.07;;;46.53;;
52618;SDS011;38513;53.234;6.568;2023-04-16T04:41:33;149.30;;;47.42;;
52618;SDS011;38513;53.234;6.568;2023-04-16T04:44:03;148.43;;;47.47;;
52618;SDS011;38513;53.234;6.568;2023-04-16T04:46:29;138.25;;;45.63;;
52618;SDS011;38513;53.234;6.568;2023-04-16T04:48:55;144.40;;;46.50;;
52618;SDS011;38513;53.234;6.568;2023-04-16T04:51:21;131.93;;;44.38;;
52618;SDS011;38513;53.234;6.568;2023-04-16T04:53:47;151.23;;;47.43;;
52618;SDS011;38513;53.234;6.568;2023-04-16T04:56:14;163.23;;;46.50;;
52618;SDS011;38513;53.234;6.568;2023-04-16T04:58:40;151.30;;;45.92;;
52618;SDS011;38513;53.234;6.568;2023-04-16T05:01:06;156.40;;;46.83;;
52618;SDS011;38513;53.234;6.568;2023-04-16T05:03:32;129.68;;;43.75;;
52618;SDS011;38513;53.234;6.568;2023-04-16T05:05:58;143.35;;;43.72;;
52618;SDS011;38513;53.234;6.568;2023-04-16T05:08:25;159.27;;;46.53;;
52618;SDS011;38513;53.234;6.568;2023-04-16T05:10:51;154.20;;;46.70;;
52618;SDS011;38513;53.234;6.568;2023-04-16T05:13:23;151.93;;;44.55;;
52618;SDS011;38513;53.234;6.568;2023-04-16T05:15:49;149.85;;;46.15;;
52618;SDS011;38513;53.234;6.568;2023-04-16T05:18:15;168.27;;;47.15;;
52618;SDS011;38513;53.234;6.568;2023-04-16T05:20:42;143.25;;;47.33;;
52618;SDS011;38513;53.234;6.568;2023-04-16T05:23:08;146.50;;;45.47;;
52618;SDS011;38513;53.234;6.568;2023-04-16T05:25:34;197.63;;;51.67;;
52618;SDS011;38513;53.234;6.568;2023-04-16T05:28:03;148.85;;;45.50;;
52618;SDS011;38513;53.234;6.568;2023-04-16T05:30:29;144.20;;;44.22;;
52618;SDS011;38513;53.234;6.568;2023-04-16T05:32:56;210.82;;;51.63;;
52618;SDS011;38513;53.234;6.568;2023-04-16T05:35:24;126.07;;;40.08;;
52618;SDS011;38513;53.234;6.568;2023-04-16T05:37:51;145.20;;;43.28;;
52618;SDS011;38513;53.234;6.568;2023-04-16T05:40:17;140.23;;;41.28;;
52618;SDS011;38513;53.234;6.568;2023-04-16T05:42:44;108.87;;;38.40;;
52618;SDS011;38513;53.234;6.568;2023-04-16T05:45:10;114.05;;;38.60;;
52618;SDS011;38513;53.234;6.568;2023-04-16T05:47:36;161.27;;;45.00;;
52618;SDS011;38513;53.234;6.568;2023-04-16T05:50:03;159.50;;;44.08;;
52618;SDS011;38513;53.234;6.568;2023-04-16T05:52:29;131.98;;;41.53;;
52618;SDS011;38513;53.234;6.568;2023-04-16T05:54:55;161.90;;;44.47;;
52618;SDS011;38513;53.234;6.568;2023-04-16T05:57:26;144.07;;;42.90;;
52618;SDS011;38513;53.234;6.568;2023-04-16T05:59:56;116.68;;;39.80;;
52618;SDS011;38513;53.234;6.568;2023-04-16T06:02:28;142.27;;;42.60;;
52618;SDS011;38513;53.234;6.568;2023-04-16T06:04:55;133.70;;;41.92;;
52618;SDS011;38513;53.234;6.568;2023-04-16T06:07:21;130.60;;;41.38;;
52618;SDS011;38513;53.234;6.568;2023-04-16T06:09:51;142.50;;;41.45;;
52618;SDS011;38513;53.234;6.568;2023-04-16T06:12:17;125.20;;;40.38;;
52618;SDS011;38513;53.234;6.568;2023-04-16T06:14:43;115.22;;;39.22;;
52618;SDS011;38513;53.234;6.568;2023-04-16T06:17:10;128.68;;;41.10;;
52618;SDS011;38513;53.234;6.568;2023-04-16T06:19:36;111.47;;;38.60;;
52618;SDS011;38513;53.234;6.568;2023-04-16T06:22:02;123.55;;;38.67;;
52618;SDS011;38513;53.234;6.568;2023-04-16T06:24:30;108.70;;;38.10;;
52618;SDS011;38513;53.234;6.568;2023-04-16T06:26:56;104.87;;;36.53;;
52618;SDS011;38513;53.234;6.568;2023-04-16T06:29:23;92.82;;;35.72;;
52618;SDS011;38513;53.234;6.568;2023-04-16T06:31:52;98.28;;;35.90;;
52618;SDS011;38513;53.234;6.568;2023-04-16T06:34:23;106.00;;;33.20;;
52618;SDS011;38513;53.234;6.568;2023-04-16T06:36:49;86.88;;;33.33;;
52618;SDS011;38513;53.234;6.568;2023-04-16T06:39:16;87.85;;;33.40;;
52618;SDS011;38513;53.234;6.568;2023-04-16T06:41:42;84.13;;;31.10;;
52618;SDS011;38513;53.234;6.568;2023-04-16T06:44:08;73.95;;;30.25;;
52618;SDS011;38513;53.234;6.568;2023-04-16T06:46:35;80.78;;;29.88;;
52618;SDS011;38513;53.234;6.568;2023-04-16T06:49:04;76.00;;;29.93;;
52618;SDS011;38513;53.234;6.568;2023-04-16T06:51:30;80.63;;;31.20;;
52618;SDS011;38513;53.234;6.568;2023-04-16T06:54:00;84.20;;;31.10;;
52618;SDS011;38513;53.234;6.568;2023-04-16T06:56:26;74.15;;;30.35;;
52618;SDS011;38513;53.234;6.568;2023-04-16T06:58:53;75.10;;;29.87;;
52618;SDS011;38513;53.234;6.568;2023-04-16T07:01:21;74.97;;;29.75;;
52618;SDS011;38513;53.234;6.568;2023-04-16T07:03:48;73.38;;;30.55;;
52618;SDS011;38513;53.234;6.568;2023-04-16T07:06:17;67.97;;;31.10;;
52618;SDS011;38513;53.234;6.568;2023-04-16T07:08:43;75.95;;;30.92;;
52618;SDS011;38513;53.234;6.568;2023-04-16T07:11:12;76.93;;;31.38;;
52618;SDS011;38513;53.234;6.568;2023-04-16T07:13:39;76.50;;;31.58;;
52618;SDS011;38513;53.234;6.568;2023-04-16T07:16:05;78.40;;;33.08;;
52618;SDS011;38513;53.234;6.568;2023-04-16T07:18:31;72.23;;;31.37;;
52618;SDS011;38513;53.234;6.568;2023-04-16T07:20:57;61.17;;;31.52;;
52618;SDS011;38513;53.234;6.568;2023-04-16T07:23:24;70.90;;;31.20;;
52618;SDS011;38513;53.234;6.568;2023-04-16T07:25:50;77.25;;;31.17;;
52618;SDS011;38513;53.234;6.568;2023-04-16T07:28:16;66.63;;;29.92;;
52618;SDS011;38513;53.234;6.568;2023-04-16T07:30:42;69.65;;;31.45;;
52618;SDS011;38513;53.234;6.568;2023-04-16T07:33:09;68.70;;;29.23;;
52618;SDS011;38513;53.234;6.568;2023-04-16T07:35:35;67.15;;;29.52;;
52618;SDS011;38513;53.234;6.568;2023-04-16T07:38:01;65.85;;;29.73;;
52618;SDS011;38513;53.234;6.568;2023-04-16T07:40:27;65.68;;;29.38;;
52618;SDS011;38513;53.234;6.568;2023-04-16T07:42:53;63.03;;;28.58;;
52618;SDS011;38513;53.234;6.568;2023-04-16T07:45:20;69.32;;;28.55;;
52618;SDS011;38513;53.234;6.568;2023-04-16T07:47:46;57.28;;;28.05;;
52618;SDS011;38513;53.234;6.568;2023-04-16T07:50:12;71.22;;;28.75;;
52618;SDS011;38513;53.234;6.568;2023-04-16T07:52:40;59.13;;;26.88;;
52618;SDS011;38513;53.234;6.568;2023-04-16T07:55:07;60.28;;;25.48;;
52618;SDS011;38513;53.234;6.568;2023-04-16T07:57:34;59.93;;;25.20;;
52618;SDS011;38513;53.234;6.568;2023-04-16T08:00:01;57.10;;;24.42;;
52618;SDS011;38513;53.234;6.568;2023-04-16T08:02:29;52.67;;;23.10;;
52618;SDS011;38513;53.234;6.568;2023-04-16T08:04:55;53.33;;;23.63;;
52618;SDS011;38513;53.234;6.568;2023-04-16T08:07:21;53.95;;;23.33;;
52618;SDS011;38513;53.234;6.568;2023-04-16T08:09:49;55.05;;;23.42;;
52618;SDS011;38513;53.234;6.568;2023-04-16T08:12:16;52.30;;;22.63;;
52618;SDS011;38513;53.234;6.568;2023-04-16T08:14:42;58.17;;;23.80;;
52618;SDS011;38513;53.234;6.568;2023-04-16T08:17:10;49.90;;;23.20;;
52618;SDS011;38513;53.234;6.568;2023-04-16T08:19:36;56.08;;;21.92;;
52618;SDS011;38513;53.234;6.568;2023-04-16T08:22:02;50.47;;;21.98;;
52618;SDS011;38513;53.234;6.568;2023-04-16T08:24:29;49.67;;;23.10;;
52618;SDS011;38513;53.234;6.568;2023-04-16T08:26:55;49.33;;;22.52;;
52618;SDS011;38513;53.234;6.568;2023-04-16T08:29:21;49.90;;;21.60;;
52618;SDS011;38513;53.234;6.568;2023-04-16T08:31:51;46.90;;;22.20;;
52618;SDS011;38513;53.234;6.568;2023-04-16T08:34:17;49.22;;;21.75;;
52618;SDS011;38513;53.234;6.568;2023-04-16T08:36:43;46.38;;;21.63;;
52618;SDS011;38513;53.234;6.568;2023-04-16T08:39:10;44.15;;;21.52;;
52618;SDS011;38513;53.234;6.568;2023-04-16T08:41:37;42.13;;;20.83;;
52618;SDS011;38513;53.234;6.568;2023-04-16T08:44:07;47.67;;;21.13;;
52618;SDS011;38513;53.234;6.568;2023-04-16T08:46:37;41.45;;;20.70;;
52618;SDS011;38513;53.234;6.568;2023-04-16T08:49:06;40.80;;;21.27;;
52618;SDS011;38513;53.234;6.568;2023-04-16T08:51:35;39.40;;;20.23;;
52618;SDS011;38513;53.234;6.568;2023-04-16T08:54:02;40.25;;;19.75;;
52618;SDS011;38513;53.234;6.568;2023-04-16T08:56:29;43.28;;;21.25;;
52618;SDS011;38513;53.234;6.568;2023-04-16T08:58:56;42.07;;;20.13;;
52618;SDS011;38513;53.234;6.568;2023-04-16T09:01:28;39.25;;;19.83;;
52618;SDS011;38513;53.234;6.568;2023-04-16T09:03:55;38.85;;;19.42;;
52618;SDS011;38513;53.234;6.568;2023-04-16T09:06:21;40.08;;;20.45;;
52618;SDS011;38513;53.234;6.568;2023-04-16T09:08:47;41.15;;;20.63;;
52618;SDS011;38513;53.234;6.568;2023-04-16T09:11:15;40.47;;;20.08;;
52618;SDS011;38513;53.234;6.568;2023-04-16T09:13:42;41.00;;;20.13;;
52618;SDS011;38513;53.234;6.568;2023-04-16T09:16:08;36.97;;;20.02;;
52618;SDS011;38513;53.234;6.568;2023-04-16T09:18:34;42.42;;;20.80;;
52618;SDS011;38513;53.234;6.568;2023-04-16T09:21:03;37.70;;;20.42;;
52618;SDS011;38513;53.234;6.568;2023-04-16T09:23:31;37.38;;;19.92;;
52618;SDS011;38513;53.234;6.568;2023-04-16T09:25:58;38.28;;;19.75;;
52618;SDS011;38513;53.234;6.568;2023-04-16T09:28:57;36.65;;;18.88;;
52618;SDS011;38513;53.234;6.568;2023-04-16T09:31:17;41.13;;;19.13;;
52618;SDS011;38513;53.234;6.568;2023-04-16T09:36:25;34.42;;;19.45;;
52618;SDS011;38513;53.234;6.568;2023-04-16T09:38:52;39.72;;;18.35;;
52618;SDS011;38513;53.234;6.568;2023-04-16T09:41:25;36.60;;;18.13;;
52618;SDS011;38513;53.234;6.568;2023-04-16T09:43:56;33.05;;;17.85;;
52618;SDS011;38513;53.234;6.568;2023-04-16T09:46:23;38.25;;;18.88;;
52618;SDS011;38513;53.234;6.568;2023-04-16T09:48:49;37.75;;;18.17;;
52618;SDS011;38513;53.234;6.568;2023-04-16T09:51:16;35.88;;;17.73;;
52618;SDS011;38513;53.234;6.568;2023-04-16T09:53:42;39.00;;;18.17;;
52618;SDS011;38513;53.234;6.568;2023-04-16T09:56:08;39.53;;;18.87;;
52618;SDS011;38513;53.234;6.568;2023-04-16T09:58:35;39.38;;;19.23;;
52618;SDS011;38513;53.234;6.568;2023-04-16T10:01:10;39.90;;;19.08;;
52618;SDS011;38513;53.234;6.568;2023-04-16T10:03:39;36.93;;;19.20;;
52618;SDS011;38513;53.234;6.568;2023-04-16T10:06:06;37.72;;;19.08;;
52618;SDS011;38513;53.234;6.568;2023-04-16T10:08:36;43.20;;;20.00;;
52618;SDS011;38513;53.234;6.568;2023-04-16T10:11:02;39.05;;;19.92;;
52618;SDS011;38513;53.234;6.568;2023-04-16T10:13:28;40.75;;;20.02;;
52618;SDS011;38513;53.234;6.568;2023-04-16T10:15:55;39.10;;;19.35;;
52618;SDS011;38513;53.234;6.568;2023-04-16T10:18:22;43.15;;;19.75;;
52618;SDS011;38513;53.234;6.568;2023-04-16T10:20:54;37.35;;;18.83;;
52618;SDS011;38513;53.234;6.568;2023-04-16T10:23:20;36.33;;;19.05;;
52618;SDS011;38513;53.234;6.568;2023-04-16T10:25:47;36.05;;;19.08;;
52618;SDS011;38513;53.234;6.568;2023-04-16T10:28:14;38.67;;;19.98;;
52618;SDS011;38513;53.234;6.568;2023-04-16T10:30:41;35.42;;;18.98;;
52618;SDS011;38513;53.234;6.568;2023-04-16T10:33:12;39.08;;;19.55;;
52618;SDS011;38513;53.234;6.568;2023-04-16T10:35:39;40.65;;;19.90;;
52618;SDS011;38513;53.234;6.568;2023-04-16T10:38:24;33.70;;;19.30;;
52618;SDS011;38513;53.234;6.568;2023-04-16T10:41:04;36.23;;;19.43;;
52618;SDS011;38513;53.234;6.568;2023-04-16T10:43:32;39.58;;;19.73;;
52618;SDS011;38513;53.234;6.568;2023-04-16T10:46:21;37.65;;;18.65;;
52618;SDS011;38513;53.234;6.568;2023-04-16T10:48:49;33.90;;;18.88;;
52618;SDS011;38513;53.234;6.568;2023-04-16T10:51:29;33.67;;;19.10;;
52618;SDS011;38513;53.234;6.568;2023-04-16T10:54:40;37.42;;;19.35;;
52618;SDS011;38513;53.234;6.568;2023-04-16T10:56:48;38.00;;;20.17;;
52618;SDS011;38513;53.234;6.568;2023-04-16T10:59:16;37.13;;;20.40;;
52618;SDS011;38513;53.234;6.568;2023-04-16T11:01:44;36.05;;;20.73;;
52618;SDS011;38513;53.234;6.568;2023-04-16T11:12:17;41.20;;;22.35;;
52618;SDS011;38513;53.234;6.568;2023-04-16T11:14:47;41.15;;;21.83;;
52618;SDS011;38513;53.234;6.568;2023-04-16T11:20:40;40.85;;;21.65;;
52618;SDS011;38513;53.234;6.568;2023-04-16T11:23:06;43.37;;;20.97;;
52618;SDS011;38513;53.234;6.568;2023-04-16T11:25:37;33.55;;;20.67;;
52618;SDS011;38513;53.234;6.568;2023-04-16T11:28:06;35.78;;;20.83;;
52618;SDS011;38513;53.234;6.568;2023-04-16T11:30:36;38.60;;;20.45;;
52618;SDS011;38513;53.234;6.568;2023-04-16T11:33:09;32.97;;;19.50;;
52618;SDS011;38513;53.234;6.568;2023-04-16T11:35:38;34.70;;;19.93;;
52618;SDS011;38513;53.234;6.568;2023-04-16T11:38:05;35.63;;;20.45;;
52618;SDS011;38513;53.234;6.568;2023-04-16T11:40:31;33.63;;;20.13;;
52618;SDS011;38513;53.234;6.568;2023-04-16T11:43:01;35.95;;;21.88;;
52618;SDS011;38513;53.234;6.568;2023-04-16T11:45:28;33.67;;;21.00;;
52618;SDS011;38513;53.234;6.568;2023-04-16T11:47:54;33.63;;;20.42;;
52618;SDS011;38513;53.234;6.568;2023-04-16T11:50:25;36.22;;;20.42;;
52618;SDS011;38513;53.234;6.568;2023-04-16T11:52:52;34.28;;;20.70;;
52618;SDS011;38513;53.234;6.568;2023-04-16T11:55:21;38.83;;;21.53;;
52618;SDS011;38513;53.234;6.568;2023-04-16T11:57:48;34.22;;;20.83;;
52618;SDS011;38513;53.234;6.568;2023-04-16T12:00:15;32.53;;;20.60;;
52618;SDS011;38513;53.234;6.568;2023-04-16T12:02:44;36.67;;;21.25;;
52618;SDS011;38513;53.234;6.568;2023-04-16T12:07:56;37.95;;;20.75;;
52618;SDS011;38513;53.234;6.568;2023-04-16T12:10:22;34.90;;;20.63;;
52618;SDS011;38513;53.234;6.568;2023-04-16T12:12:49;36.33;;;20.98;;
52618;SDS011;38513;53.234;6.568;2023-04-16T12:15:21;36.00;;;20.90;;
52618;SDS011;38513;53.234;6.568;2023-04-16T12:17:47;33.90;;;20.48;;
52618;SDS011;38513;53.234;6.568;2023-04-16T12:20:14;33.88;;;19.55;;
52618;SDS011;38513;53.234;6.568;2023-04-16T12:22:44;36.63;;;20.90;;
52618;SDS011;38513;53.234;6.568;2023-04-16T12:25:12;31.42;;;20.08;;
52618;SDS011;38513;53.234;6.568;2023-04-16T12:27:42;32.50;;;19.98;;
52618;SDS011;38513;53.234;6.568;2023-04-16T12:30:09;35.73;;;20.03;;
52618;SDS011;38513;53.234;6.568;2023-04-16T12:32:36;32.55;;;20.65;;
52618;SDS011;38513;53.234;6.568;2023-04-16T12:35:02;35.37;;;20.87;;
52618;SDS011;38513;53.234;6.568;2023-04-16T12:37:29;34.70;;;21.42;;
52618;SDS011;38513;53.234;6.568;2023-04-16T12:39:55;34.42;;;21.25;;
52618;SDS011;38513;53.234;6.568;2023-04-16T12:42:24;35.38;;;21.55;;
52618;SDS011;38513;53.234;6.568;2023-04-16T12:44:50;35.47;;;20.02;;
52618;SDS011;38513;53.234;6.568;2023-04-16T12:47:17;40.97;;;21.48;;
52618;SDS011;38513;53.234;6.568;2023-04-16T12:49:46;35.78;;;20.40;;
52618;SDS011;38513;53.234;6.568;2023-04-16T12:52:12;36.80;;;21.17;;
52618;SDS011;38513;53.234;6.568;2023-04-16T12:54:38;35.97;;;20.70;;
52618;SDS011;38513;53.234;6.568;2023-04-16T12:57:05;35.38;;;21.42;;
52618;SDS011;38513;53.234;6.568;2023-04-16T12:59:31;32.72;;;20.00;;
52618;SDS011;38513;53.234;6.568;2023-04-16T13:01:59;32.92;;;20.35;;
52618;SDS011;38513;53.234;6.568;2023-04-16T13:04:26;37.70;;;20.70;;
52618;SDS011;38513;53.234;6.568;2023-04-16T13:06:52;34.47;;;20.90;;
52618;SDS011;38513;53.234;6.568;2023-04-16T13:09:18;35.63;;;20.67;;
52618;SDS011;38513;53.234;6.568;2023-04-16T13:11:45;33.97;;;21.70;;
52618;SDS011;38513;53.234;6.568;2023-04-16T13:14:11;35.57;;;20.93;;
52618;SDS011;38513;53.234;6.568;2023-04-16T13:16:37;32.10;;;21.30;;
52618;SDS011;38513;53.234;6.568;2023-04-16T13:19:03;41.90;;;21.33;;
52618;SDS011;38513;53.234;6.568;2023-04-16T13:21:30;37.40;;;21.98;;
52618;SDS011;38513;53.234;6.568;2023-04-16T13:23:57;34.30;;;20.10;;
52618;SDS011;38513;53.234;6.568;2023-04-16T13:26:24;33.28;;;21.20;;
52618;SDS011;38513;53.234;6.568;2023-04-16T13:28:51;39.22;;;20.98;;
52618;SDS011;38513;53.234;6.568;2023-04-16T13:31:17;32.50;;;20.42;;
52618;SDS011;38513;53.234;6.568;2023-04-16T13:33:46;35.87;;;21.10;;
52618;SDS011;38513;53.234;6.568;2023-04-16T13:36:12;35.50;;;22.37;;
52618;SDS011;38513;53.234;6.568;2023-04-16T13:38:38;38.57;;;21.43;;
52618;SDS011;38513;53.234;6.568;2023-04-16T13:41:06;36.83;;;22.15;;
52618;SDS011;38513;53.234;6.568;2023-04-16T13:43:32;37.00;;;20.77;;
52618;SDS011;38513;53.234;6.568;2023-04-16T13:45:58;35.60;;;20.45;;
52618;SDS011;38513;53.234;6.568;2023-04-16T13:48:25;37.47;;;19.65;;
52618;SDS011;38513;53.234;6.568;2023-04-16T13:50:51;35.55;;;21.95;;
52618;SDS011;38513;53.234;6.568;2023-04-16T13:53:17;37.08;;;20.73;;
52618;SDS011;38513;53.234;6.568;2023-04-16T13:55:43;35.10;;;20.45;;
52618;SDS011;38513;53.234;6.568;2023-04-16T13:58:10;40.30;;;21.15;;
52618;SDS011;38513;53.234;6.568;2023-04-16T14:00:36;38.13;;;20.00;;
52618;SDS011;38513;53.234;6.568;2023-04-16T14:03:02;58.15;;;37.10;;
52618;SDS011;38513;53.234;6.568;2023-04-16T14:05:30;37.95;;;23.05;;
52618;SDS011;38513;53.234;6.568;2023-04-16T14:07:57;35.30;;;19.95;;
52618;SDS011;38513;53.234;6.568;2023-04-16T14:10:23;33.10;;;19.20;;
52618;SDS011;38513;53.234;6.568;2023-04-16T14:12:53;30.27;;;20.30;;
52618;SDS011;38513;53.234;6.568;2023-04-16T14:15:20;36.75;;;20.58;;
52618;SDS011;38513;53.234;6.568;2023-04-16T14:17:46;31.98;;;20.25;;
52618;SDS011;38513;53.234;6.568;2023-04-16T14:20:12;30.20;;;19.47;;
52618;SDS011;38513;53.234;6.568;2023-04-16T14:22:39;28.02;;;18.25;;
52618;SDS011;38513;53.234;6.568;2023-04-16T14:25:06;31.63;;;23.10;;
52618;SDS011;38513;53.234;6.568;2023-04-16T14:27:32;28.67;;;18.80;;
52618;SDS011;38513;53.234;6.568;2023-04-16T14:29:59;41.87;;;22.27;;
52618;SDS011;38513;53.234;6.568;2023-04-16T14:32:28;29.00;;;19.48;;